Startpagina
METAR-TAF:

METAR-TAF

Vliegvelden :

Ankara Esenboğa, Turkije

Luchthaven Ankara Esenboga

breedte: 40-07N, lengte: 032-59E, hoogte: 953 m

Actueel weer

Dit bericht is 45 minuten geleden gemaakt, om 15:50 UTC
Wind 6 kt uit het oosten
Temperatuur 13°C
Vochtigheid 28%
Druk 1023 hPa
Zicht 10 km of meer
geen wolken onder 1500 m en geen cumulonimbus

METAR: LTAC 251550Z 08006KT CAVOK 13/M05 Q1023 NOSIG RMK RWY21L 10006KT RWY03L 09006KT RWY21R VRB05KT

Tijdstip: 19:35 (16:35 UTC)

Verwachting

Dit bericht is 5 uur en het 55 minuten geleden gemaakt, om 10:40 UTC
Verwachting geldig van 25 om 12 UTC tot 26 om 12 UTC
Wind 2 kt uit variabele richting
Zicht 10 km of meer
geen wolken onder 1500 m en geen cumulonimbus

TAF: LTAC 251040Z 2512/2612 VRB02KT CAVOK

Waarnemingen en weersverwachtingen van meer dan 4000 vliegvelden (METAR en TAF).

De beschikbare stations zijn de gele en rode punten op de kaart.

Ga met uw muis naar het station om de naam te zien.

Klik dan om waarnemingen en weersverwachtingen te zien.

kaart wijzigen: klik op de groene knoppen met een zwart kruis om in te zoomen, op de groene knop met een streepje om uit te zoomen of op de groene pijlen voor aangrenzende kaarten.


METAR-TAF: